UAIIUTSB

Guest
Details From UAII - SHYMKENT
To UTSB - BUKHARA
Flight Number -
Tags generated
Created
Modified
Stats Distance 277 nm / 514 km
Max Altitude 34,000 ft / 10,363 m
Waypoints 5
Social Downloads 0
Likes 0
Share VATSIM

Download

Looking for another format? Having issues loading an existing format? Contact us
Advertisement - Login to hide

Notes

Basic altitude profile: - Ascent Rate: 2500ft/min - Ascent Speed: 250kts - Cruise Altitude: 35000ft - Cruise Speed: 420kts - Descent Rate: 1500ft/min - Descent Speed: 250kts Options: - Use NATs: yes - Use PACOTS: yes - Use low airways: yes - Use high airways: yes

Route

UAII DIBAD W71 SAGIR UTSB

ID Type Via Altitude Latitude Longitude Leg Dist Tot Dist Heading (true) Name
O UAII APT - 0 ft / 0 m 42.36424˚ 69.47912˚ - 0 nm - SHYMKENT
DIBAD FIX - 32,800 ft / 9,997 m 41.28333˚ 67.93333˚ 94 nm 94 nm 227° / 226° -
OKESO FIX W71 (AWY-HI) 34,000 ft / 10,363 m 41.18083˚ 67.60222˚ 16 nm 111 nm 248° / 248° -
SAGIR FIX W71 (AWY-HI) 22,900 ft / 6,980 m 40.80000˚ 66.40000˚ 59 nm 170 nm 248° / 247° -
O UTSB APT - 0 ft / 0 m 39.77500˚ 64.48333˚ 107 nm 277 nm 236° / 234° BUKHARA

Altitude Profile

Advertisement - Login to hide

Weather


0- 5 10 15 20 25 30 35+ Temperature / ° C

Clouds and Precipitation
Forecast for 2018-05-22 18:00 UTC. Updated 5 hours ago

Ground ~20,000 ft ~40,000 ft Winds

UAII

Details ICAO UAII (CIT)
Name SHYMKENT
Region Kazakhstan and Kyrgyzstan
Timezone Asia/Almaty (UTC+6.0)
Stats Elevation 1,385 ft / 422 m (AMSL)
Location 42.364236° 69.479116°
Runways 1
Magnetic Variation 5.850° E

METAR

UAII 222130Z 18003G08MPS CAVOK 20/09 Q1015 R10/0///70 NOSIG RMK QFE726/0968

Decode

TAF

TAF UAII 221700Z 2218/2318 22006MPS 6000 SCT050CB BKN100 TX26/2309Z TN15/2301Z TEMPO 2218/2306 18006G11MPS TEMPO 2306/2312 34006MPS

Decode

Departure Runways

ID Width Length Bearing (true) Bearing (mag) Surface Threshold Offset Overrun Length
10 144 ft / 44 m 9,167 ft / 2,794 m 106.29° 100.44° Concrete 0 ft / 0 m 0 ft / 0 m
28 144 ft / 44 m 9,167 ft / 2,794 m 286.31° 280.46° Concrete 0 ft / 0 m 0 ft / 0 m

UTSB

Details ICAO UTSB (BHK)
Name BUKHARA
Region Tajikistan, Turkmenistan and Uzbekistan
Timezone Asia/Samarkand (UTC+5.0)
Stats Elevation 751 ft / 229 m (AMSL)
Location 39.775000° 64.483334°
Runways 1
Magnetic Variation 5.268° E

METAR

UTSB 222130Z 21006KT CAVOK 23/05 Q1016 R01/CLRD70 NOSIG

Decode

TAF

TAF UTSB 221700Z 2218/2318 VRB03KT 7000 NSC TEMPO 2218/2305 15010KT

Decode

Destination Runways

ID Width Length Bearing (true) Bearing (mag) Surface Threshold Offset Overrun Length
01 147 ft / 45 m 9,909 ft / 3,020 m 10.87° 5.60° Asphalt 0 ft / 0 m 177 ft / 54 m
19 147 ft / 45 m 9,909 ft / 3,020 m 190.88° 185.61° Asphalt 0 ft / 0 m 177 ft / 54 m

Approach Navaids

Runway Type Ident Frequency Range Bearing (true) Bearing (mag) Slope Elevation
01 Localiser IUH 110.30 MHz 18 nm / 33 km 10.88° 5.61° - 753 ft / 230 m (AMSL)
01 Glidescope IUH 110.30 MHz 10 nm / 19 km 10.88° 5.61° 3.00° 736 ft / 224 m (AMSL)